createdAt,value
2018-07-22T00:02:01.252Z,100278.02
2018-07-22T00:04:29.335Z,100279.26
2018-07-22T00:06:57.465Z,100271.92
2018-07-22T00:09:25.544Z,100269.89
2018-07-22T00:11:53.752Z,100267.98
2018-07-22T00:14:21.827Z,100268.59
2018-07-22T00:16:49.907Z,100272.31
2018-07-22T00:19:18.012Z,100268.94
2018-07-22T00:21:46.107Z,100274.72
2018-07-22T00:24:14.219Z,100273.18
2018-07-22T00:26:48.223Z,100274.75
2018-07-22T00:29:16.364Z,100269.55
2018-07-22T00:31:44.451Z,100271.70
2018-07-22T00:34:12.535Z,100269.56
2018-07-22T00:36:40.647Z,100269.08
2018-07-22T00:39:10.186Z,100268.38
2018-07-22T00:41:38.283Z,100270.04
2018-07-22T00:44:06.346Z,100261.56
2018-07-22T00:46:34.451Z,100257.16
2018-07-22T00:49:02.594Z,100259.16
2018-07-22T00:51:30.708Z,100250.47
2018-07-22T00:53:58.816Z,100256.98
2018-07-22T00:56:26.906Z,100260.30
2018-07-22T00:58:54.988Z,100254.48
2018-07-22T01:01:23.075Z,100253.23
2018-07-22T01:03:51.354Z,100256.66
2018-07-22T01:06:19.417Z,100261.59
2018-07-22T01:08:47.510Z,100258.10
2018-07-22T01:11:15.593Z,100255.61
2018-07-22T01:13:43.723Z,100256.41
2018-07-22T01:16:11.804Z,100253.23
2018-07-22T01:18:40.241Z,100254.84
2018-07-22T01:21:08.325Z,100261.47
2018-07-22T01:23:36.423Z,100256.27
2018-07-22T01:26:04.525Z,100261.36
2018-07-22T01:28:32.607Z,100250.92
2018-07-22T01:31:00.670Z,100259.84
2018-07-22T01:33:28.743Z,100257.24
2018-07-22T01:35:56.830Z,100264.43
2018-07-22T01:38:25.134Z,100266.56
2018-07-22T01:40:53.360Z,100267.39
2018-07-22T01:43:21.610Z,100267.52
2018-07-22T01:45:49.662Z,100264.64
2018-07-22T01:48:17.762Z,100270.96
2018-07-22T01:50:45.841Z,100276.97
2018-07-22T01:53:13.938Z,100273.26
2018-07-22T01:55:42.019Z,100280.50
2018-07-22T01:58:10.145Z,100281.60
2018-07-22T02:00:38.227Z,100274.36
2018-07-22T02:03:06.327Z,100279.52
2018-07-22T02:05:34.414Z,100283.71
2018-07-22T02:08:02.501Z,100284.56
2018-07-22T02:10:30.588Z,100286.64
2018-07-22T02:12:58.646Z,100283.00
2018-07-22T02:15:26.755Z,100280.22
2018-07-22T02:17:54.932Z,100283.41
2018-07-22T02:20:23.265Z,100286.67
2018-07-22T02:22:51.398Z,100282.26
2018-07-22T02:25:19.502Z,100286.09
2018-07-22T02:27:47.596Z,100282.81
2018-07-22T02:30:15.675Z,100284.28
2018-07-22T02:32:43.774Z,100284.17
2018-07-22T02:35:11.866Z,100285.02
2018-07-22T02:37:40.027Z,100285.69
2018-07-22T02:40:08.265Z,100294.16
2018-07-22T02:42:36.353Z,100287.87
2018-07-22T02:45:04.434Z,100293.64
2018-07-22T02:47:32.516Z,100296.59
2018-07-22T02:50:00.643Z,100297.00
2018-07-22T02:52:28.718Z,100302.46
2018-07-22T02:54:56.835Z,100291.00
2018-07-22T02:57:24.926Z,100287.42
2018-07-22T02:59:53.017Z,100289.72
2018-07-22T03:02:21.107Z,100291.92
2018-07-22T03:04:49.185Z,100287.23
2018-07-22T03:07:17.296Z,100297.47
2018-07-22T03:09:45.421Z,100300.14
2018-07-22T03:12:13.512Z,100297.11
2018-07-22T03:14:41.614Z,100300.31
2018-07-22T03:17:11.853Z,100292.91
2018-07-22T03:19:39.964Z,100289.88
2018-07-22T03:22:08.115Z,100294.13
2018-07-22T03:24:36.253Z,100297.36
2018-07-22T03:27:04.351Z,100299.73
2018-07-22T03:29:32.428Z,100306.81
2018-07-22T03:32:00.490Z,100310.12
2018-07-22T03:34:28.589Z,100303.71
2018-07-22T03:36:56.664Z,100304.83
2018-07-22T03:39:24.758Z,100305.36
2018-07-22T03:41:52.851Z,100309.27
2018-07-22T03:44:21.406Z,100308.73
2018-07-22T03:46:49.531Z,100304.09
2018-07-22T03:49:17.626Z,100309.69
2018-07-22T03:51:45.684Z,100304.98
2018-07-22T03:54:13.776Z,100302.66
2018-07-22T03:56:41.870Z,100308.84
2018-07-22T03:59:10.201Z,100309.61
2018-07-22T04:01:38.475Z,100306.85
2018-07-22T04:04:06.614Z,100309.50
2018-07-22T04:06:34.664Z,100308.25
2018-07-22T04:09:02.784Z,100305.16
2018-07-22T04:11:30.866Z,100305.72
2018-07-22T04:13:58.975Z,100305.59
2018-07-22T04:16:27.291Z,100310.42
2018-07-22T04:18:55.372Z,100312.63
2018-07-22T04:21:24.489Z,100321.81
2018-07-22T04:23:52.568Z,100319.55
2018-07-22T04:26:21.456Z,100318.23
2018-07-22T04:28:50.028Z,100320.74
2018-07-22T04:31:18.206Z,100313.80
2018-07-22T04:33:46.348Z,100319.98
2018-07-22T04:36:14.411Z,100320.42
2018-07-22T04:38:43.066Z,100321.73
2018-07-22T04:41:11.155Z,100323.13
2018-07-22T04:43:39.231Z,100323.19
2018-07-22T04:46:07.371Z,100320.36
2018-07-22T04:48:35.459Z,100327.45
2018-07-22T04:51:03.571Z,100334.14
2018-07-22T04:53:31.667Z,100333.06
2018-07-22T04:55:59.730Z,100333.37
2018-07-22T04:58:27.848Z,100339.24
2018-07-22T05:00:55.927Z,100338.33
2018-07-22T05:03:24.023Z,100340.86
2018-07-22T05:05:52.163Z,100341.44
2018-07-22T05:08:20.327Z,100342.06
2018-07-22T05:10:48.587Z,100341.64
2018-07-22T05:13:16.661Z,100343.84
2018-07-22T05:15:44.747Z,100348.65
2018-07-22T05:18:12.831Z,100342.70
2018-07-22T05:20:41.080Z,100354.21
2018-07-22T05:23:09.241Z,100353.13
2018-07-22T05:25:37.345Z,100357.03
2018-07-22T05:28:05.435Z,100363.37
2018-07-22T05:30:33.514Z,100358.69
2018-07-22T05:33:01.587Z,100359.98
2018-07-22T05:35:29.683Z,100356.02
2018-07-22T05:38:04.168Z,100356.55
2018-07-22T05:40:32.287Z,100364.47
2018-07-22T05:43:00.383Z,100361.84
2018-07-22T05:45:28.487Z,100362.37
2018-07-22T05:47:56.568Z,100366.88
2018-07-22T05:50:24.679Z,100366.09
2018-07-22T05:52:52.775Z,100365.13
2018-07-22T05:55:20.940Z,100369.45
2018-07-22T05:57:49.094Z,100376.21
2018-07-22T06:00:17.385Z,100380.92
2018-07-22T06:02:45.462Z,100387.84
2018-07-22T06:05:13.996Z,100384.57
2018-07-22T06:07:42.282Z,100391.89
2018-07-22T06:10:10.631Z,100396.19
2018-07-22T06:12:38.719Z,100397.05
2018-07-22T06:15:07.895Z,100398.20
2018-07-22T06:17:36.057Z,100397.95
2018-07-22T06:20:04.458Z,100399.84
2018-07-22T06:22:32.558Z,100397.89
2018-07-22T06:25:00.653Z,100400.30
2018-07-22T06:27:28.724Z,100392.68
2018-07-22T06:29:57.123Z,100405.63
2018-07-22T06:32:25.241Z,100397.81
2018-07-22T06:34:53.326Z,100403.02
2018-07-22T06:37:21.418Z,100404.11
2018-07-22T06:39:49.526Z,100407.22
2018-07-22T06:42:17.617Z,100408.98
2018-07-22T06:44:45.705Z,100409.41
2018-07-22T06:47:13.772Z,100399.92
2018-07-22T06:49:41.868Z,100404.83
2018-07-22T06:52:09.948Z,100403.48
2018-07-22T06:54:38.173Z,100410.03
2018-07-22T06:57:06.258Z,100411.92
2018-07-22T06:59:34.358Z,100411.54
2018-07-22T07:02:02.455Z,100408.95
2018-07-22T07:04:30.539Z,100409.05
2018-07-22T07:06:58.619Z,100406.90
2018-07-22T07:09:26.710Z,100411.55
2018-07-22T07:11:54.786Z,100413.81
2018-07-22T07:14:22.983Z,100418.97
2018-07-22T07:16:51.080Z,100421.05
2018-07-22T07:19:19.174Z,100418.58
2018-07-22T07:21:47.279Z,100416.31
2018-07-22T07:24:15.347Z,100420.56
2018-07-22T07:26:43.437Z,100417.64
2018-07-22T07:29:11.491Z,100423.00
2018-07-22T07:31:39.784Z,100417.64
2018-07-22T07:34:09.849Z,100421.66
2018-07-22T07:36:38.403Z,100407.09
2018-07-22T07:39:09.324Z,100416.78
2018-07-22T07:41:37.621Z,100411.15
2018-07-22T07:44:05.705Z,100419.70
2018-07-22T07:46:33.811Z,100412.92
2018-07-22T07:49:01.904Z,100414.00
2018-07-22T07:51:30.081Z,100418.98
2018-07-22T07:53:58.230Z,100419.53
2018-07-22T07:56:26.368Z,100417.36
2018-07-22T07:58:54.493Z,100414.68
2018-07-22T08:01:22.611Z,100417.40
2018-07-22T08:03:50.754Z,100416.59
2018-07-22T08:06:18.794Z,100416.31
2018-07-22T08:08:46.867Z,100417.09
2018-07-22T08:11:14.967Z,100420.91
2018-07-22T08:13:43.239Z,100422.27
2018-07-22T08:16:11.331Z,100422.81
2018-07-22T08:18:39.434Z,100421.73
2018-07-22T08:21:07.572Z,100427.71
2018-07-22T08:23:35.667Z,100428.27
2018-07-22T08:26:03.814Z,100421.68
2018-07-22T08:28:43.028Z,100422.42
2018-07-22T08:31:11.221Z,100424.28
2018-07-22T08:33:39.319Z,100426.42
2018-07-22T08:36:07.431Z,100426.38
2018-07-22T08:38:35.582Z,100418.72
2018-07-22T08:41:03.663Z,100423.94
2018-07-22T08:43:31.764Z,100414.30
2018-07-22T08:45:59.853Z,100421.64
2018-07-22T08:48:28.028Z,100417.91
2018-07-22T08:50:56.188Z,100417.02
2018-07-22T08:53:24.274Z,100416.70
2018-07-22T08:55:52.372Z,100420.37
2018-07-22T08:58:20.496Z,100408.44
2018-07-22T09:00:48.686Z,100410.27
2018-07-22T09:03:16.788Z,100409.97
2018-07-22T09:05:45.050Z,100408.52
2018-07-22T09:08:13.151Z,100409.67
2018-07-22T09:10:41.187Z,100412.53
2018-07-22T09:13:09.409Z,100405.95
2018-07-22T09:15:37.689Z,100413.81
2018-07-22T09:18:05.936Z,100412.41
2018-07-22T09:20:33.972Z,100406.63
2018-07-22T09:23:02.079Z,100406.45
2018-07-22T09:25:30.196Z,100405.16
2018-07-22T09:27:58.295Z,100412.33
2018-07-22T09:30:26.396Z,100409.73
2018-07-22T09:32:54.500Z,100410.44
2018-07-22T09:35:25.270Z,100409.80
2018-07-22T09:37:53.360Z,100412.23
2018-07-22T09:40:21.476Z,100411.81
2018-07-22T09:42:49.592Z,100410.97
2018-07-22T09:45:17.699Z,100404.75
2018-07-22T09:47:52.721Z,100405.20
2018-07-22T09:50:20.915Z,100400.64
2018-07-22T09:52:50.360Z,100397.36
2018-07-22T09:55:18.559Z,100391.95
2018-07-22T09:57:46.825Z,100396.05
2018-07-22T10:00:19.243Z,100398.26
2018-07-22T10:02:48.212Z,100400.70
2018-07-22T10:05:16.585Z,100400.61
2018-07-22T10:07:44.791Z,100400.53
2018-07-22T10:10:12.976Z,100394.87
2018-07-22T10:12:41.300Z,100398.94
2018-07-22T10:15:10.149Z,100404.11
2018-07-22T10:17:38.532Z,100401.94
2018-07-22T10:20:07.032Z,100407.02
2018-07-22T10:22:35.431Z,100397.17
2018-07-22T10:25:03.603Z,100403.58
2018-07-22T10:27:31.739Z,100398.55
2018-07-22T10:29:59.836Z,100396.80
2018-07-22T10:32:28.073Z,100390.83
2018-07-22T10:34:56.172Z,100390.94
2018-07-22T10:37:24.266Z,100387.95
2018-07-22T10:39:52.737Z,100385.95
2018-07-22T10:42:21.781Z,100387.97
2018-07-22T10:44:51.474Z,100388.05
2018-07-22T10:47:19.624Z,100395.35
2018-07-22T10:49:47.839Z,100391.23
2018-07-22T10:52:16.034Z,100384.41
2018-07-22T10:54:44.131Z,100376.53
2018-07-22T10:57:12.381Z,100380.23
2018-07-22T10:59:40.787Z,100376.62
2018-07-22T11:02:09.059Z,100376.42
2018-07-22T11:04:37.281Z,100373.86
2018-07-22T11:07:05.517Z,100371.94
2018-07-22T11:09:33.700Z,100369.33
2018-07-22T11:12:01.916Z,100362.91
2018-07-22T11:14:30.048Z,100366.31
2018-07-22T11:16:58.344Z,100359.59
2018-07-22T11:19:26.456Z,100356.59
2018-07-22T11:21:54.552Z,100357.05
2018-07-22T11:24:22.657Z,100355.63
2018-07-22T11:26:50.747Z,100349.83
2018-07-22T11:29:18.816Z,100351.12
2018-07-22T11:31:46.906Z,100350.71
2018-07-22T11:34:15.003Z,100346.08
2018-07-22T11:36:43.130Z,100347.83
2018-07-22T11:39:12.262Z,100342.22
2018-07-22T11:41:40.929Z,100351.16
2018-07-22T11:44:09.661Z,100339.08
2018-07-22T11:46:38.755Z,100341.31
2018-07-22T11:49:07.328Z,100333.84
2018-07-22T11:51:35.723Z,100333.58
2018-07-22T11:54:04.017Z,100334.05
2018-07-22T11:56:32.122Z,100326.02
2018-07-22T11:59:00.211Z,100326.24
2018-07-22T12:01:28.412Z,100325.63
2018-07-22T12:03:56.439Z,100316.93
2018-07-22T12:06:24.612Z,100321.28
2018-07-22T12:08:52.696Z,100325.07
2018-07-22T12:11:20.823Z,100328.05
2018-07-22T12:13:48.945Z,100321.93
2018-07-22T12:16:16.994Z,100325.03
2018-07-22T12:18:45.075Z,100321.99
2018-07-22T12:21:13.161Z,100317.46
2018-07-22T12:23:41.247Z,100316.99
2018-07-22T12:26:09.358Z,100317.81
2018-07-22T12:28:37.427Z,100318.78
2018-07-22T12:31:05.503Z,100320.38
2018-07-22T12:33:33.588Z,100319.19
2018-07-22T12:36:01.660Z,100317.58
2018-07-22T12:38:29.734Z,100317.41
2018-07-22T12:40:57.851Z,100313.58
2018-07-22T12:43:25.920Z,100321.33
2018-07-22T12:45:54.115Z,100324.01
2018-07-22T12:48:22.252Z,100329.84
2018-07-22T12:50:50.329Z,100335.30
2018-07-22T12:53:18.467Z,100338.92
2018-07-22T12:55:46.539Z,100342.75
2018-07-22T12:58:14.714Z,100332.80
2018-07-22T13:00:42.882Z,100334.02
2018-07-22T13:03:10.984Z,100329.98
2018-07-22T13:05:39.067Z,100328.63
2018-07-22T13:08:07.525Z,100332.94
2018-07-22T13:10:35.603Z,100338.12
2018-07-22T13:13:03.699Z,100334.17
2018-07-22T13:15:31.811Z,100340.73
2018-07-22T13:17:59.918Z,100336.70
2018-07-22T13:20:28.015Z,100334.83
2018-07-22T13:22:56.144Z,100329.84
2018-07-22T13:25:24.229Z,100331.77
2018-07-22T13:27:52.595Z,100328.16
2018-07-22T13:30:20.693Z,100327.38
2018-07-22T13:32:48.803Z,100325.27
2018-07-22T13:35:16.917Z,100332.68
2018-07-22T13:37:44.996Z,100332.65
2018-07-22T13:40:13.084Z,100338.02
2018-07-22T13:42:41.180Z,100348.72
2018-07-22T13:45:09.359Z,100355.57
2018-07-22T13:47:37.483Z,100355.16
2018-07-22T13:50:05.682Z,100366.92
2018-07-22T13:52:33.870Z,100372.27
2018-07-22T13:55:01.975Z,100396.37
2018-07-22T13:57:30.220Z,100391.44
2018-07-22T13:59:58.332Z,100376.17
2018-07-22T14:02:26.519Z,100381.36
2018-07-22T14:04:54.632Z,100379.97
2018-07-22T14:07:22.787Z,100376.88
2018-07-22T14:09:51.033Z,100385.91
2018-07-22T14:12:19.708Z,100390.80
2018-07-22T14:14:48.574Z,100388.77
2018-07-22T14:17:17.059Z,100396.27
2018-07-22T14:19:45.689Z,100398.56
2018-07-22T14:22:14.175Z,100387.23
2018-07-22T14:24:42.316Z,100393.80
2018-07-22T14:27:11.816Z,100395.61
2018-07-22T14:29:40.338Z,100393.59
2018-07-22T14:32:08.607Z,100390.69
2018-07-22T14:34:36.755Z,100393.55
2018-07-22T14:37:05.003Z,100394.13
2018-07-22T14:39:33.276Z,100389.75
2018-07-22T14:42:01.503Z,100381.27
2018-07-22T14:44:30.865Z,100384.54
2018-07-22T14:46:59.388Z,100374.44
2018-07-22T14:49:27.678Z,100375.05
2018-07-22T14:51:56.389Z,100391.97
2018-07-22T14:54:24.821Z,100394.16
2018-07-22T14:56:53.858Z,100396.63
2018-07-22T14:59:22.313Z,100394.98
2018-07-22T15:01:50.751Z,100402.32
2018-07-22T15:04:40.456Z,100395.23
2018-07-22T15:07:08.780Z,100393.30
2018-07-22T15:09:37.914Z,100386.47
2018-07-22T15:12:06.334Z,100390.32
2018-07-22T15:14:34.712Z,100391.94
2018-07-22T15:17:02.961Z,100399.55
2018-07-22T15:19:31.147Z,100399.02
2018-07-22T15:22:00.205Z,100394.70
2018-07-22T15:24:28.449Z,100394.33
2018-07-22T15:26:57.578Z,100408.09
2018-07-22T15:29:26.274Z,100401.68
2018-07-22T15:31:54.724Z,100399.95
2018-07-22T15:34:22.949Z,100397.20
2018-07-22T15:36:51.087Z,100391.73
2018-07-22T15:39:19.254Z,100391.41
2018-07-22T15:41:47.349Z,100393.44
2018-07-22T15:44:15.505Z,100397.56
2018-07-22T15:46:43.598Z,100401.75
2018-07-22T15:49:11.722Z,100403.86
2018-07-22T15:51:39.841Z,100406.45
2018-07-22T15:54:08.024Z,100398.72
2018-07-22T15:56:36.239Z,100394.38
2018-07-22T15:59:04.415Z,100397.42
2018-07-22T16:01:33.847Z,100395.55
2018-07-22T16:04:01.976Z,100402.38
2018-07-22T16:06:30.144Z,100394.47
2018-07-22T16:08:58.611Z,100397.44
2018-07-22T16:11:26.996Z,100391.22
2018-07-22T16:13:55.203Z,100390.73
2018-07-22T16:16:59.802Z,100388.16
2018-07-22T16:19:27.883Z,100380.31
2018-07-22T16:21:56.012Z,100375.87
2018-07-22T16:24:24.135Z,100382.38
2018-07-22T16:26:52.200Z,100378.70
2018-07-22T16:29:20.415Z,100377.59
2018-07-22T16:31:48.569Z,100383.45
2018-07-22T16:34:16.724Z,100379.05
2018-07-22T16:36:46.809Z,100387.44
2018-07-22T16:39:14.899Z,100386.17
2018-07-22T16:41:43.657Z,100384.17
2018-07-22T16:44:11.848Z,100385.95
2018-07-22T16:46:40.083Z,100393.52
2018-07-22T16:49:08.166Z,100397.61
2018-07-22T16:51:43.604Z,100392.69
2018-07-22T16:54:11.715Z,100396.04
2018-07-22T16:56:39.823Z,100399.17
2018-07-22T16:59:07.958Z,100402.13
2018-07-22T17:01:36.067Z,100394.97
2018-07-22T17:04:04.267Z,100396.03
2018-07-22T17:09:28.465Z,100393.39
2018-07-22T17:11:56.616Z,100398.75
2018-07-22T17:14:24.723Z,100395.09
2018-07-22T17:16:52.807Z,100395.49
2018-07-22T17:19:21.035Z,100392.69
2018-07-22T17:21:49.279Z,100392.95
2018-07-22T17:24:18.399Z,100398.44
2018-07-22T17:26:46.551Z,100403.37
2018-07-22T17:29:14.672Z,100401.12
2018-07-22T17:31:42.743Z,100405.84
2018-07-22T17:34:10.879Z,100404.57
2018-07-22T17:36:39.040Z,100416.27
2018-07-22T17:39:08.855Z,100417.84
2018-07-22T17:41:37.106Z,100412.90
2018-07-22T17:44:05.504Z,100415.58
2018-07-22T17:46:33.820Z,100419.53
2018-07-22T17:49:02.051Z,100424.91
2018-07-22T17:51:30.160Z,100423.20
2018-07-22T17:53:58.262Z,100415.89
2018-07-22T17:56:26.572Z,100417.70
2018-07-22T17:58:54.677Z,100419.67
2018-07-22T18:01:22.804Z,100419.91
2018-07-22T18:03:50.876Z,100424.01
2018-07-22T18:06:18.978Z,100421.10
2018-07-22T18:08:47.552Z,100421.70
2018-07-22T18:11:15.790Z,100424.48
2018-07-22T18:13:44.540Z,100421.27
2018-07-22T18:16:12.736Z,100421.31
2018-07-22T18:18:42.093Z,100435.80
2018-07-22T18:21:12.127Z,100433.89
2018-07-22T18:23:40.293Z,100434.22
2018-07-22T18:26:09.443Z,100439.99
2018-07-22T18:28:37.847Z,100437.23
2018-07-22T18:31:06.044Z,100437.48
2018-07-22T18:33:34.534Z,100437.16
2018-07-22T18:36:03.975Z,100439.39
2018-07-22T18:38:32.952Z,100443.80
2018-07-22T18:41:03.331Z,100455.29
2018-07-22T18:43:32.280Z,100453.08
2018-07-22T18:46:01.439Z,100446.80
2018-07-22T18:48:30.119Z,100454.13
2018-07-22T18:50:59.845Z,100457.36
2018-07-22T18:53:28.048Z,100464.50
2018-07-22T18:55:56.235Z,100458.25
2018-07-22T18:58:24.568Z,100456.91
2018-07-22T19:00:52.810Z,100451.73
2018-07-22T19:03:21.847Z,100462.09
2018-07-22T19:05:50.068Z,100464.30
2018-07-22T19:08:18.234Z,100462.09
2018-07-22T19:10:46.432Z,100459.39
2018-07-22T19:13:14.730Z,100468.66
2018-07-22T19:15:42.878Z,100467.83
2018-07-22T19:18:11.095Z,100468.41
2018-07-22T19:20:39.403Z,100475.50
2018-07-22T19:23:08.360Z,100473.58
2018-07-22T19:25:36.814Z,100482.56
2018-07-22T19:28:05.985Z,100483.14
2018-07-22T19:30:34.170Z,100488.59
2018-07-22T19:33:02.347Z,100488.59
2018-07-22T19:35:30.480Z,100489.42
2018-07-22T19:37:59.411Z,100490.48
2018-07-22T19:40:27.607Z,100486.39
2018-07-22T19:43:30.608Z,100494.86
2018-07-22T19:46:16.887Z,100494.28
2018-07-22T19:48:45.189Z,100497.00
2018-07-22T19:51:14.699Z,100500.47
2018-07-22T19:53:43.801Z,100504.47
2018-07-22T19:56:23.656Z,100485.42
2018-07-22T19:58:54.800Z,100510.30
2018-07-22T20:01:22.937Z,100508.92
2018-07-22T20:03:52.794Z,100513.01
2018-07-22T20:06:21.386Z,100515.20
2018-07-22T20:08:50.550Z,100511.11
2018-07-22T20:11:21.061Z,100523.08
2018-07-22T20:16:37.306Z,100531.57
2018-07-22T20:19:37.966Z,100531.58
2018-07-22T20:22:15.340Z,100528.52
2018-07-22T20:24:55.005Z,100539.72
2018-07-22T20:28:04.139Z,100531.58
2018-07-22T20:30:47.717Z,100532.64
2018-07-22T20:33:17.622Z,100530.13
2018-07-22T20:36:21.258Z,100535.50
2018-07-22T20:39:22.325Z,100535.58
2018-07-22T20:41:54.589Z,100534.20
2018-07-22T20:44:38.630Z,100541.56
2018-07-22T20:47:09.179Z,100547.17
2018-07-22T20:58:26.973Z,100555.67
2018-07-22T21:03:27.331Z,100552.61
2018-07-22T21:05:57.948Z,100552.20
2018-07-22T21:08:29.706Z,100545.20
2018-07-22T21:11:03.118Z,100560.48
2018-07-22T21:13:35.267Z,100547.34
2018-07-22T21:16:04.976Z,100546.55
2018-07-22T21:18:33.737Z,100556.31
2018-07-22T21:21:03.684Z,100560.16
2018-07-22T21:23:33.665Z,100556.23
2018-07-22T21:26:04.587Z,100569.59
2018-07-22T21:28:35.031Z,100557.38
2018-07-22T21:31:07.310Z,100571.49
2018-07-22T21:36:26.196Z,100580.32
2018-07-22T21:39:05.468Z,100578.08
2018-07-22T21:41:34.226Z,100582.13
2018-07-22T21:44:04.729Z,100569.84
2018-07-22T21:46:33.302Z,100580.58
2018-07-22T21:49:06.370Z,100586.05
2018-07-22T21:54:22.956Z,100583.53
2018-07-22T21:56:51.107Z,100585.39
2018-07-22T21:59:23.488Z,100585.86
2018-07-22T22:02:04.670Z,100583.08
2018-07-22T22:04:41.542Z,100585.53
2018-07-22T22:07:34.824Z,100581.12
2018-07-22T22:10:08.407Z,100577.28
2018-07-22T22:12:37.115Z,100585.93
2018-07-22T22:15:15.920Z,100589.25
2018-07-22T22:17:45.878Z,100593.55
2018-07-22T22:20:23.256Z,100601.41
2018-07-22T22:22:55.386Z,100587.14
2018-07-22T22:25:23.527Z,100596.70
2018-07-22T22:27:51.731Z,100592.02
2018-07-22T22:30:21.737Z,100594.13
2018-07-22T22:33:04.244Z,100595.79
2018-07-22T22:35:39.364Z,100595.41
2018-07-22T22:38:27.463Z,100596.47
2018-07-22T22:41:15.829Z,100590.77
2018-07-22T22:46:22.646Z,100594.30
2018-07-22T22:48:53.355Z,100612.88
2018-07-22T22:51:21.649Z,100608.80
2018-07-22T22:53:54.223Z,100607.58
2018-07-22T22:56:24.281Z,100609.62
2018-07-22T22:59:03.768Z,100605.16
2018-07-22T23:01:32.682Z,100608.36
2018-07-22T23:04:00.755Z,100616.89
2018-07-22T23:06:28.886Z,100613.44
2018-07-22T23:08:56.966Z,100610.52
2018-07-22T23:11:25.063Z,100608.59
2018-07-22T23:13:53.153Z,100606.70
2018-07-22T23:16:21.247Z,100603.52
2018-07-22T23:18:49.385Z,100607.95
2018-07-22T23:21:17.487Z,100611.03
2018-07-22T23:23:45.670Z,100611.44
2018-07-22T23:26:13.772Z,100613.03
2018-07-22T23:28:41.867Z,100614.78
2018-07-22T23:31:09.961Z,100613.75
2018-07-22T23:33:38.079Z,100611.24
2018-07-22T23:36:06.186Z,100616.41
2018-07-22T23:38:34.275Z,100615.94
2018-07-22T23:41:02.363Z,100615.94
2018-07-22T23:43:30.459Z,100621.62
2018-07-22T23:45:58.546Z,100621.16
2018-07-22T23:48:26.636Z,100620.16
2018-07-22T23:50:54.724Z,100622.25
2018-07-22T23:53:22.826Z,100621.09
2018-07-22T23:55:50.898Z,100615.67
2018-07-22T23:58:19.014Z,100614.06
